createdAt,value
2022-08-23T00:07:36.349Z,97246.75
2022-08-23T00:17:42.308Z,97244.19
2022-08-23T00:27:45.059Z,97242.72
2022-08-23T00:37:54.334Z,97239.16
2022-08-23T00:48:12.373Z,97241.09
2022-08-23T00:58:18.707Z,97240.47
2022-08-23T01:08:25.928Z,97234.47
2022-08-23T01:18:30.450Z,97230.44
2022-08-23T01:38:36.025Z,97202.81
2022-08-23T01:48:38.457Z,97200.06
2022-08-23T01:58:40.896Z,97213.25
2022-08-23T02:09:01.235Z,97225.88
2022-08-23T02:19:09.030Z,97222.63
2022-08-23T02:29:11.192Z,97238.78
2022-08-23T02:39:14.887Z,97249.78
2022-08-23T02:49:17.405Z,97248.38
2022-08-23T02:59:19.739Z,97244.97
2022-08-23T03:09:21.945Z,97244.66
2022-08-23T03:19:24.562Z,97240.28
2022-08-23T03:29:26.808Z,97238.34
2022-08-23T03:39:29.500Z,97223.97
2022-08-23T03:49:32.263Z,97234.63
2022-08-23T03:59:36.839Z,97241.75
2022-08-23T04:09:39.014Z,97247.25
2022-08-23T04:19:41.611Z,97257.91
2022-08-23T04:29:43.742Z,97255.69
2022-08-23T04:40:04.546Z,97245.16
2022-08-23T04:50:08.101Z,97229.19
2022-08-23T05:00:16.596Z,97237.41
2022-08-23T05:10:19.189Z,97225.13
2022-08-23T05:20:21.422Z,97249.53
2022-08-23T05:30:23.587Z,97267.16
2022-08-23T05:40:27.078Z,97277.50
2022-08-23T05:50:29.379Z,97286.72
2022-08-23T06:00:38.053Z,97276.88
2022-08-23T06:10:43.070Z,97285.63
2022-08-23T06:20:45.398Z,97286.75
2022-08-23T06:30:47.654Z,97292.25
2022-08-23T06:40:50.076Z,97295.03
2022-08-23T06:50:52.227Z,97297.09
2022-08-23T07:00:57.465Z,97312.94
2022-08-23T07:11:00.631Z,97312.88
2022-08-23T07:21:05.309Z,97311.88
2022-08-23T07:31:30.869Z,97319.03
2022-08-23T07:41:35.253Z,97331.81
2022-08-23T07:51:40.091Z,97329.19
2022-08-23T08:01:45.574Z,97330.31
2022-08-23T08:11:48.912Z,97341.06
2022-08-23T08:21:51.398Z,97346.47
2022-08-23T08:31:54.480Z,97353.91
2022-08-23T08:42:12.217Z,97356.19
2022-08-23T08:52:21.340Z,97359.97
2022-08-23T09:02:33.700Z,97357.06
2022-08-23T09:12:56.719Z,97369.31
2022-08-23T09:23:23.589Z,97380.31
2022-08-23T09:33:37.348Z,97391.56
2022-08-23T09:43:47.328Z,97398.25
2022-08-23T09:53:53.512Z,97392.13
2022-08-23T10:04:17.928Z,97405.28
2022-08-23T10:14:23.432Z,97410.00
2022-08-23T10:24:52.509Z,97412.44
2022-08-23T10:34:57.706Z,97406.66
2022-08-23T10:45:15.335Z,97409.06
2022-08-23T10:55:44.330Z,97406.31
2022-08-23T11:06:25.724Z,97402.41
2022-08-23T11:16:31.433Z,97419.84
2022-08-23T11:26:37.870Z,97422.34
2022-08-23T11:36:40.017Z,97425.47
2022-08-23T11:46:55.529Z,97425.97
2022-08-23T11:57:45.613Z,97431.56
2022-08-23T12:08:13.335Z,97449.69
2022-08-23T12:18:18.329Z,97448.72
2022-08-23T12:28:38.468Z,97453.44
2022-08-23T12:39:08.052Z,97450.34
2022-08-23T12:49:24.998Z,97444.69
2022-08-23T12:59:36.176Z,97447.38
2022-08-23T13:09:41.100Z,97446.72
2022-08-23T13:19:43.974Z,97450.25
2022-08-23T13:30:00.009Z,97454.91
2022-08-23T13:40:16.417Z,97447.91
2022-08-23T13:50:25.945Z,97441.69
2022-08-23T14:00:28.352Z,97451.25
2022-08-23T14:10:30.597Z,97442.72
2022-08-23T14:20:43.424Z,97446.03
2022-08-23T14:30:48.226Z,97441.50
2022-08-23T14:40:57.730Z,97441.13
2022-08-23T14:50:59.989Z,97442.00
2022-08-23T15:01:02.330Z,97451.72
2022-08-23T15:21:29.254Z,97457.69
2022-08-23T15:31:31.930Z,97451.91
2022-08-23T15:41:34.344Z,97449.91
2022-08-23T15:51:37.385Z,97454.31
2022-08-23T16:01:40.374Z,97467.53
2022-08-23T16:11:42.519Z,97467.25
2022-08-23T16:21:45.078Z,97462.59
2022-08-23T16:31:48.064Z,97464.72
2022-08-23T16:41:50.372Z,97464.47
2022-08-23T16:51:52.909Z,97469.00
2022-08-23T17:01:58.645Z,97470.50
2022-08-23T17:12:01.288Z,97477.50
2022-08-23T17:22:03.508Z,97495.19
2022-08-23T17:32:07.074Z,97489.19
2022-08-23T17:42:09.496Z,97498.94
2022-08-23T17:52:12.949Z,97502.19
2022-08-23T18:02:15.521Z,97518.44
2022-08-23T18:12:17.735Z,97532.72
2022-08-23T18:22:20.353Z,97543.94
2022-08-23T18:32:23.339Z,97553.19
2022-08-23T18:42:26.482Z,97560.03
2022-08-23T18:52:30.997Z,97564.59
2022-08-23T19:02:34.193Z,97563.13
2022-08-23T19:12:36.640Z,97556.97
2022-08-23T19:22:39.093Z,97573.03
2022-08-23T19:42:43.876Z,97589.91
2022-08-23T19:52:46.031Z,97604.84
2022-08-23T20:02:48.514Z,97598.50
2022-08-23T20:12:50.790Z,97594.09
2022-08-23T20:23:11.574Z,97598.66
2022-08-23T20:40:11.994Z,97601.09
2022-08-23T20:50:14.298Z,97619.91
2022-08-23T21:00:16.838Z,97618.75
2022-08-23T21:10:19.097Z,97617.13
2022-08-23T21:20:21.368Z,97618.28
2022-08-23T21:30:23.747Z,97606.78
2022-08-23T21:50:28.838Z,97587.00
2022-08-23T22:10:09.700Z,97580.34
2022-08-23T22:20:13.636Z,97581.63
2022-08-23T22:30:16.994Z,97582.97
2022-08-23T22:40:20.042Z,97582.78
2022-08-23T22:50:22.255Z,97579.69
2022-08-23T23:00:24.699Z,97583.75
2022-08-23T23:10:26.863Z,97580.97
2022-08-23T23:20:41.206Z,97584.53
2022-08-23T23:30:45.763Z,97588.13
2022-08-23T23:40:48.099Z,97592.16
2022-08-23T23:50:50.343Z,97600.13
